Time,TemperatureF,DewpointF,PressureIn,WindDirection,WindDirectionDegrees,WindSpeedMPH,WindSpeedGustMPH,Humidity,HourlyPrecipIn,Conditions,Clouds,dailyrainin,SoftwareType,DateUTC
2013-04-04 01:11:00,28.8,15.0,30.35,South,173,0.0,-999.0,57,-99.99,,,0.00,weatherlink.com 1.10,2013-04-04 05:11:00,
2013-04-04 01:26:00,28.0,15.0,30.35,South,173,0.0,-999.0,59,-99.99,,,0.00,weatherlink.com 1.10,2013-04-04 05:26:00,
2013-04-04 01:56:00,26.2,15.0,30.36,South,173,0.0,-999.0,63,-99.99,,,0.00,weatherlink.com 1.10,2013-04-04 05:56:00,
2013-04-04 02:11:00,25.4,15.0,30.37,South,173,0.0,-999.0,66,-99.99,,,0.00,weatherlink.com 1.10,2013-04-04 06:11:00,
2013-04-04 02:26:00,24.5,15.0,30.37,South,173,0.0,-999.0,68,-99.99,,,0.00,weatherlink.com 1.10,2013-04-04 06:26:00,
2013-04-04 02:41:00,24.4,16.0,30.37,South,170,0.0,-999.0,69,-99.99,,,0.00,weatherlink.com 1.10,2013-04-04 06:41:00,
2013-04-04 02:56:00,24.2,16.0,30.36,South,170,0.0,-999.0,70,-99.99,,,0.00,weatherlink.com 1.10,2013-04-04 06:56:00,
2013-04-04 03:11:00,23.7,15.0,30.36,South,170,0.0,-999.0,70,-99.99,,,0.00,weatherlink.com 1.10,2013-04-04 07:11:00,
2013-04-04 03:26:00,23.4,16.0,30.36,South,170,0.0,-999.0,72,-99.99,,,0.00,weatherlink.com 1.10,2013-04-04 07:26:00,
2013-04-04 03:41:00,23.1,16.0,30.36,South,170,0.0,-999.0,73,-99.99,,,0.00,weatherlink.com 1.10,2013-04-04 07:41:00,
2013-04-04 03:56:00,22.6,15.0,30.36,South,170,0.0,-999.0,74,-99.99,,,0.00,weatherlink.com 1.10,2013-04-04 07:56:00,
2013-04-04 04:11:00,22.2,15.0,30.36,South,170,0.0,-999.0,75,-99.99,,,0.00,weatherlink.com 1.10,2013-04-04 08:11:00,
2013-04-04 04:26:00,21.8,15.0,30.37,South,170,0.0,-999.0,76,-99.99,,,0.00,weatherlink.com 1.10,2013-04-04 08:26:00,
2013-04-04 04:41:00,21.4,15.0,30.38,South,170,0.0,-999.0,76,-99.99,,,0.00,weatherlink.com 1.10,2013-04-04 08:41:00,
2013-04-04 04:57:00,21.0,15.0,30.38,South,170,0.0,-999.0,78,-99.99,,,0.00,weatherlink.com 1.10,2013-04-04 08:57:00,
2013-04-04 05:11:00,20.7,15.0,30.39,South,170,0.0,-999.0,79,-99.99,,,0.00,weatherlink.com 1.10,2013-04-04 09:11:00,
2013-04-04 05:27:00,20.5,15.0,30.39,South,170,0.0,-999.0,79,-99.99,,,0.00,weatherlink.com 1.10,2013-04-04 09:27:00,
2013-04-04 05:42:00,20.2,15.0,30.39,South,170,0.0,-999.0,80,-99.99,,,0.00,weatherlink.com 1.10,2013-04-04 09:42:00,
2013-04-04 05:57:00,20.0,15.0,30.39,South,170,0.0,-999.0,80,-99.99,,,0.00,weatherlink.com 1.10,2013-04-04 09:57:00,
2013-04-04 06:12:00,19.8,15.0,30.39,South,170,0.0,-999.0,80,-99.99,,,0.00,weatherlink.com 1.10,2013-04-04 10:12:00,
2013-04-04 06:27:00,19.6,15.0,30.39,South,170,0.0,-999.0,81,-99.99,,,0.00,weatherlink.com 1.10,2013-04-04 10:27:00,
2013-04-04 06:42:00,19.4,15.0,30.40,South,170,0.0,-999.0,81,-99.99,,,0.00,weatherlink.com 1.10,2013-04-04 10:42:00,
2013-04-04 06:57:00,19.1,15.0,30.40,South,170,0.0,-999.0,82,-99.99,,,0.00,weatherlink.com 1.10,2013-04-04 10:57:00,
2013-04-04 07:12:00,19.1,15.0,30.40,South,170,0.0,-999.0,82,-99.99,,,0.00,weatherlink.com 1.10,2013-04-04 11:12:00,
2013-04-04 07:27:00,19.2,15.0,30.40,South,170,0.0,-999.0,83,-99.99,,,0.00,weatherlink.com 1.10,2013-04-04 11:27:00,
2013-04-04 07:42:00,19.7,16.0,30.41,South,170,0.0,-999.0,84,-99.99,,,0.00,weatherlink.com 1.10,2013-04-04 11:42:00,
2013-04-04 07:57:00,20.6,17.0,30.42,South,170,0.0,-999.0,85,-99.99,,,0.00,weatherlink.com 1.10,2013-04-04 11:57:00,
2013-04-04 08:15:00,21.6,20.0,30.41,South,170,0.0,-999.0,92,-99.99,,,0.00,weatherlink.com 1.10,2013-04-04 12:15:00,
2013-04-04 08:27:00,22.9,19.0,30.41,South,170,0.0,-999.0,84,-99.99,,,0.00,weatherlink.com 1.10,2013-04-04 12:27:00,
2013-04-04 08:42:00,24.4,20.0,30.41,South,170,0.0,-999.0,82,-99.99,,,0.00,weatherlink.com 1.10,2013-04-04 12:42:00,
2013-04-04 08:57:00,26.4,20.0,30.41,SSW,197,2.0,-999.0,77,-99.99,,,0.00,weatherlink.com 1.10,2013-04-04 12:57:00,
2013-04-04 09:12:00,28.5,20.0,30.40,SSW,207,0.0,-999.0,71,-99.99,,,0.00,weatherlink.com 1.10,2013-04-04 13:12:00,
2013-04-04 09:27:00,30.2,19.0,30.39,SSW,211,0.0,-999.0,64,-99.99,,,0.00,weatherlink.com 1.10,2013-04-04 13:27:00,
2013-04-04 09:42:00,31.3,19.0,30.38,West,263,1.0,-999.0,61,-99.99,,,0.00,weatherlink.com 1.10,2013-04-04 13:42:00,
2013-04-04 09:57:00,32.5,19.0,30.38,SSE,168,0.0,-999.0,58,-99.99,,,0.00,weatherlink.com 1.10,2013-04-04 13:57:00,
2013-04-04 10:27:00,34.2,19.0,30.35,NNE,12,0.0,-999.0,55,-99.99,,,0.00,weatherlink.com 1.10,2013-04-04 14:27:00,
2013-04-04 10:42:00,35.3,21.0,30.34,SSW,204,3.0,-999.0,56,-99.99,,,0.00,weatherlink.com 1.10,2013-04-04 14:42:00,
2013-04-04 10:57:00,36.2,19.0,30.34,ENE,57,0.0,-999.0,51,-99.99,,,0.00,weatherlink.com 1.10,2013-04-04 14:57:00,
2013-04-04 11:12:00,37.4,21.0,30.34,West,272,5.0,-999.0,52,-99.99,,,0.00,weatherlink.com 1.10,2013-04-04 15:12:00,
2013-04-04 11:27:00,38.8,21.0,30.33,WSW,249,2.0,-999.0,49,-99.99,,,0.00,weatherlink.com 1.10,2013-04-04 15:27:00,
2013-04-04 11:42:00,40.8,21.0,30.32,South,188,1.0,-999.0,46,-99.99,,,0.00,weatherlink.com 1.10,2013-04-04 15:42:00,
2013-04-04 12:12:00,45.0,24.0,30.31,WSW,252,2.0,-999.0,43,-99.99,,,0.00,weatherlink.com 1.10,2013-04-04 16:12:00,
2013-04-04 12:27:00,46.6,25.0,30.30,SSE,165,1.0,-999.0,43,-99.99,,,0.00,weatherlink.com 1.10,2013-04-04 16:27:00,
2013-04-04 12:43:00,47.2,23.0,30.29,SSW,211,6.0,-999.0,38,-99.99,,,0.00,weatherlink.com 1.10,2013-04-04 16:43:00,
2013-04-04 12:58:00,47.7,24.0,30.27,SSW,212,0.0,-999.0,39,-99.99,,,0.00,weatherlink.com 1.10,2013-04-04 16:58:00,
2013-04-04 13:13:00,49.3,26.0,30.26,SSW,196,2.0,-999.0,40,-99.99,,,0.00,weatherlink.com 1.10,2013-04-04 17:13:00,
2013-04-04 13:28:00,50.0,24.0,30.25,South,188,1.0,-999.0,36,-99.99,,,0.00,weatherlink.com 1.10,2013-04-04 17:28:00,
2013-04-04 13:43:00,50.5,24.0,30.24,SW,217,3.0,-999.0,36,-99.99,,,0.00,weatherlink.com 1.10,2013-04-04 17:43:00,
2013-04-04 13:58:00,51.7,24.0,30.23,South,181,0.0,-999.0,34,-99.99,,,0.00,weatherlink.com 1.10,2013-04-04 17:58:00,
2013-04-04 14:13:00,53.5,24.0,30.22,WSW,247,4.0,-999.0,32,-99.99,,,0.00,weatherlink.com 1.10,2013-04-04 18:13:00,
2013-04-04 14:28:00,54.1,25.0,30.20,South,186,3.0,-999.0,33,-99.99,,,0.00,weatherlink.com 1.10,2013-04-04 18:28:00,
2013-04-04 14:43:00,54.0,23.0,30.19,SSW,199,5.0,-999.0,30,-99.99,,,0.00,weatherlink.com 1.10,2013-04-04 18:43:00,
2013-04-04 14:58:00,55.1,24.0,30.18,South,188,3.0,-999.0,30,-99.99,,,0.00,weatherlink.com 1.10,2013-04-04 18:58:00,
2013-04-04 15:13:00,55.6,23.0,30.17,SE,124,2.0,-999.0,28,-99.99,,,0.00,weatherlink.com 1.10,2013-04-04 19:13:00,
2013-04-04 15:28:00,55.9,23.0,30.17,SW,234,6.0,-999.0,28,-99.99,,,0.00,weatherlink.com 1.10,2013-04-04 19:28:00,
2013-04-04 15:43:00,54.9,23.0,30.16,SW,214,7.0,-999.0,29,-99.99,,,0.00,weatherlink.com 1.10,2013-04-04 19:43:00,
2013-04-04 16:01:00,55.5,24.0,30.14,SW,221,5.0,-999.0,30,-99.99,,,0.00,weatherlink.com 1.10,2013-04-04 20:01:00,
2013-04-04 16:13:00,56.4,23.0,30.14,West,261,7.0,-999.0,28,-99.99,,,0.00,weatherlink.com 1.10,2013-04-04 20:13:00,
2013-04-04 16:28:00,55.8,24.0,30.13,South,178,1.0,-999.0,29,-99.99,,,0.00,weatherlink.com 1.10,2013-04-04 20:28:00,
2013-04-04 16:58:00,55.5,23.0,30.13,SW,226,4.0,-999.0,28,-99.99,,,0.00,weatherlink.com 1.10,2013-04-04 20:58:00,
2013-04-04 17:28:00,54.4,19.0,30.12,SSW,192,0.0,-999.0,25,-99.99,,,0.00,weatherlink.com 1.10,2013-04-04 21:28:00,
2013-04-04 17:43:00,53.4,19.0,30.12,South,178,5.0,-999.0,26,-99.99,,,0.00,weatherlink.com 1.10,2013-04-04 21:43:00,
2013-04-04 17:59:00,52.5,19.0,30.12,SE,126,0.0,-999.0,27,-99.99,,,0.00,weatherlink.com 1.10,2013-04-04 21:59:00,
2013-04-04 18:44:00,50.5,18.0,30.12,SSW,198,0.0,-999.0,28,-99.99,,,0.00,weatherlink.com 1.10,2013-04-04 22:44:00,
2013-04-04 18:59:00,49.6,18.0,30.12,SSW,204,0.0,-999.0,28,-99.99,,,0.00,weatherlink.com 1.10,2013-04-04 22:59:00,
2013-04-04 19:29:00,48.4,19.0,30.11,South,169,0.0,-999.0,31,-99.99,,,0.00,weatherlink.com 1.10,2013-04-04 23:29:00,
2013-04-04 19:44:00,47.7,20.0,30.11,South,169,0.0,-999.0,34,-99.99,,,0.00,weatherlink.com 1.10,2013-04-04 23:44:00,
2013-04-04 19:59:00,47.1,18.0,30.10,SSW,199,0.0,-999.0,32,-99.99,,,0.00,weatherlink.com 1.10,2013-04-04 23:59:00,
2013-04-04 20:29:00,46.0,21.0,30.09,SSW,197,0.0,-999.0,37,-99.99,,,0.00,weatherlink.com 1.10,2013-04-05 00:29:00,
2013-04-04 20:44:00,45.2,21.0,30.09,SSW,197,0.0,-999.0,39,-99.99,,,0.00,weatherlink.com 1.10,2013-04-05 00:44:00,
2013-04-04 20:59:00,44.5,22.0,30.09,SSW,197,0.0,-999.0,41,-99.99,,,0.00,weatherlink.com 1.10,2013-04-05 00:59:00,
2013-04-04 21:14:00,43.6,22.0,30.09,SSW,197,0.0,-999.0,43,-99.99,,,0.00,weatherlink.com 1.10,2013-04-05 01:14:00,
2013-04-04 21:29:00,43.0,23.0,30.09,SSW,197,0.0,-999.0,45,-99.99,,,0.00,weatherlink.com 1.10,2013-04-05 01:29:00,
2013-04-04 21:44:00,42.4,23.0,30.09,SSW,197,0.0,-999.0,46,-99.99,,,0.00,weatherlink.com 1.10,2013-04-05 01:44:00,
2013-04-04 21:59:00,41.9,23.0,30.09,SSW,197,0.0,-999.0,47,-99.99,,,0.00,weatherlink.com 1.10,2013-04-05 01:59:00,
2013-04-04 22:14:00,41.3,23.0,30.08,SSW,197,0.0,-999.0,49,-99.99,,,0.00,weatherlink.com 1.10,2013-04-05 02:14:00,
2013-04-04 22:29:00,40.2,22.0,30.08,SW,227,0.0,-999.0,48,-99.99,,,0.00,weatherlink.com 1.10,2013-04-05 02:29:00,
2013-04-04 22:44:00,40.1,21.0,30.07,SW,225,1.0,-999.0,46,-99.99,,,0.00,weatherlink.com 1.10,2013-04-05 02:44:00,
2013-04-04 22:59:00,40.2,20.0,30.06,South,173,0.0,-999.0,45,-99.99,,,0.00,weatherlink.com 1.10,2013-04-05 02:59:00,
2013-04-04 23:14:00,40.5,21.0,30.06,South,169,0.0,-999.0,45,-99.99,,,0.00,weatherlink.com 1.10,2013-04-05 03:14:00,
2013-04-04 23:29:00,40.4,20.0,30.05,SSE,167,0.0,-999.0,45,-99.99,,,0.00,weatherlink.com 1.10,2013-04-05 03:29:00,
2013-04-04 23:44:00,40.4,20.0,30.05,South,175,0.0,-999.0,45,-99.99,,,0.00,weatherlink.com 1.10,2013-04-05 03:44:00,
2013-04-04 23:59:00,40.1,22.0,30.04,ESE,120,0.0,-999.0,49,-99.99,,,0.00,weatherlink.com 1.10,2013-04-05 03:59:00,